Time;durP1;ratioP1;P1;durP2;ratioP2;P2;SDS_P1;SDS_P2;PMS_P1;PMS_P2;Temp;Humidity;BMP_temperature;BMP_pressure;BME280_temperature;BME280_humidity;BME280_pressure;Samples;Min_cycle;Max_cycle;Signal;HPM_P1;HPM_P2
2022/02/07 00:00:21;;;;;;;;;0.25;0.00;;;;;9.88;78.30;101443.38;5053126;28;45366;-71
2022/02/07 00:05:22;;;;;;;;;0.25;0.25;;;;;9.81;78.49;101454.94;5055166;28;45463;-71
2022/02/07 00:07:47;;;;;;;;;0.25;0.25;;;;;9.77;78.10;101469.94;5056340;28;46223;-70
2022/02/07 00:10:12;;;;;;;;;1.25;0.00;;;;;9.75;78.10;101482.22;5054847;28;45561;-70
2022/02/07 00:12:38;;;;;;;;;2.00;0.25;;;;;9.74;77.88;101496.25;5055980;28;45504;-70
2022/02/07 00:15:04;;;;;;;;;2.00;1.00;;;;;9.72;77.97;101505.09;5054779;28;45383;-70
2022/02/07 00:17:29;;;;;;;;;1.00;1.00;;;;;9.73;77.87;101509.44;5055331;28;45407;-70
2022/02/07 00:19:58;;;;;;;;;1.00;1.00;;;;;9.71;77.70;101509.50;5055283;28;49618;-70
2022/02/07 00:22:23;;;;;;;;;1.00;0.00;;;;;9.72;77.66;101512.97;5056765;28;45386;-70
2022/02/07 00:24:48;;;;;;;;;1.00;1.00;;;;;9.70;77.17;101509.50;5054909;28;45384;-70
2022/02/07 00:27:14;;;;;;;;;0.25;0.25;;;;;9.65;77.01;101512.25;5054110;28;54074;-71
2022/02/07 00:29:39;;;;;;;;;1.25;1.00;;;;;9.63;77.21;101517.56;5054457;28;45571;-71
2022/02/07 00:32:05;;;;;;;;;0.00;0.00;;;;;9.55;76.46;101543.16;5054818;28;46582;-70
2022/02/07 00:34:30;;;;;;;;;1.00;1.00;;;;;9.53;76.27;101538.81;5056204;28;45725;-71
2022/02/07 00:36:55;;;;;;;;;4.50;1.50;;;;;9.49;75.86;101542.41;5054900;28;46048;-70
2022/02/07 00:39:29;;;;;;;;;0.75;0.50;;;;;9.42;75.47;101528.59;5054973;28;45471;-70
2022/02/07 00:42:03;;;;;;;;;0.75;0.75;;;;;9.44;75.82;101544.31;5054790;28;45627;-70
2022/02/07 00:44:28;;;;;;;;;2.00;0.00;;;;;9.37;75.56;101543.59;5054760;28;45321;-70
2022/02/07 00:47:06;;;;;;;;;1.00;1.00;;;;;9.37;75.89;101565.44;5054961;28;46056;-70
2022/02/07 00:49:31;;;;;;;;;2.00;0.00;;;;;9.36;75.55;101573.38;5056348;28;45369;-70
2022/02/07 00:51:57;;;;;;;;;1.00;1.00;;;;;9.34;75.47;101573.41;5070102;28;45352;-70
2022/02/07 00:54:22;;;;;;;;;0.00;0.00;;;;;9.40;75.86;101575.88;5053829;28;53187;-70
2022/02/07 00:56:49;;;;;;;;;2.00;0.00;;;;;9.41;76.16;101581.97;5054428;28;45363;-71
2022/02/07 00:59:14;;;;;;;;;1.25;0.00;;;;;9.39;75.77;101589.00;5052568;28;45757;-70
2022/02/07 01:01:39;;;;;;;;;0.00;0.00;;;;;9.39;75.77;101604.75;5056524;28;45376;-71
2022/02/07 01:04:05;;;;;;;;;2.00;1.00;;;;;9.40;75.67;101622.25;5053285;28;45526;-71
2022/02/07 01:06:30;;;;;;;;;0.00;0.00;;;;;9.37;75.55;101623.16;5054710;28;46436;-70
2022/02/07 01:09:13;;;;;;;;;2.75;1.25;;;;;9.35;75.88;101624.13;5053382;28;45565;-71
2022/02/07 01:56:39;;;;;;;;;2.75;1.00;;;;;8.54;70.31;101789.19;5053318;28;45504;-70
2022/02/07 01:59:04;;;;;;;;;1.75;0.00;;;;;8.51;70.69;101794.50;5052359;28;46335;-70
2022/02/07 02:01:29;;;;;;;;;1.25;0.00;;;;;8.42;70.49;101791.16;5054904;28;45468;-71
2022/02/07 02:03:55;;;;;;;;;0.00;0.00;;;;;8.44;70.62;101795.47;5054027;28;45536;-70
2022/02/07 02:06:22;;;;;;;;;0.00;0.00;;;;;8.45;70.08;101806.81;5066658;28;45606;-70
2022/02/07 02:08:47;;;;;;;;;1.50;0.00;;;;;8.40;70.38;101804.25;5051556;28;45511;-70
2022/02/07 02:11:12;;;;;;;;;4.25;0.75;;;;;8.35;70.35;101813.91;5066509;28;47850;-70
2022/02/07 02:13:52;;;;;;;;;1.50;0.75;;;;;8.36;69.93;101821.81;5055710;28;45342;-71
2022/02/07 02:16:30;;;;;;;;;0.25;0.25;;;;;8.31;70.07;101836.69;5054728;28;45325;-71
2022/02/07 02:22:37;;;;;;;;;0.50;0.50;;;;;8.25;69.58;101849.03;5052476;28;45757;-71
2022/02/07 02:45:24;;;;;;;;;5.75;1.75;;;;;8.04;69.09;101874.63;5052799;28;45368;-70
2022/02/07 02:47:06;;;;;;;;;0.00;0.00;;;;;8.00;69.12;101900.88;5053373;28;45471;-70
2022/02/07 02:49:43;;;;;;;;;0.00;0.00;;;;;7.96;68.90;101905.28;5054467;28;45450;-71
2022/02/07 02:52:08;;;;;;;;;1.00;1.00;;;;;7.96;68.86;101927.97;5052606;28;46428;-70
2022/02/07 02:54:34;;;;;;;;;2.00;0.00;;;;;7.92;69.27;101935.00;5052225;28;45399;-70
2022/02/07 02:56:59;;;;;;;;;1.00;1.00;;;;;7.90;69.17;101931.53;5050108;28;45462;-70
2022/02/07 02:59:24;;;;;;;;;1.50;1.00;;;;;7.86;69.32;101927.22;5053036;28;45490;-72
2022/02/07 03:01:50;;;;;;;;;2.25;1.00;;;;;7.85;69.23;101928.97;5053156;28;45464;-70
2022/02/07 03:04:15;;;;;;;;;0.00;0.00;;;;;7.84;69.32;101931.63;5053626;28;53559;-70
2022/02/07 03:06:41;;;;;;;;;0.00;0.00;;;;;7.84;69.56;101934.25;5052267;28;45465;-70
2022/02/07 03:09:13;;;;;;;;;2.50;1.00;;;;;7.78;69.21;101936.94;5050343;28;45508;-70
2022/02/07 03:11:39;;;;;;;;;1.00;0.00;;;;;7.78;69.27;101936.94;5052694;28;45351;-70
2022/02/07 03:14:06;;;;;;;;;2.50;0.00;;;;;7.76;68.87;101933.44;5051074;28;45411;-71
2022/02/07 03:16:40;;;;;;;;;2.00;1.00;;;;;7.71;68.83;101941.34;5054047;28;45428;-70
2022/02/07 03:19:05;;;;;;;;;2.00;0.50;;;;;7.73;69.40;101946.59;5068834;28;45461;-70
2022/02/07 03:21:31;;;;;;;;;0.75;0.00;;;;;7.69;69.06;101952.72;5049713;28;46907;-70
2022/02/07 03:23:56;;;;;;;;;1.50;0.50;;;;;7.64;69.14;101950.16;5051482;28;45803;-70
2022/02/07 03:26:22;;;;;;;;;0.50;0.50;;;;;7.67;69.23;101959.72;5068170;28;47648;-70
2022/02/07 03:28:48;;;;;;;;;3.00;0.00;;;;;7.64;69.29;101968.47;5062737;28;45732;-70
2022/02/07 03:31:20;;;;;;;;;0.75;0.00;;;;;7.63;69.59;101981.59;5055689;28;45685;-70
2022/02/07 03:33:46;;;;;;;;;3.00;0.00;;;;;7.60;68.99;101977.25;5055963;28;45522;-70
2022/02/07 03:36:13;;;;;;;;;0.00;0.00;;;;;7.54;69.62;101980.78;5070039;28;45404;-70
2022/02/07 03:38:39;;;;;;;;;4.00;1.00;;;;;7.52;69.41;101985.19;5055861;28;45679;-70
2022/02/07 03:41:05;;;;;;;;;1.75;1.25;;;;;7.53;69.62;102005.22;5054267;28;45578;-70
2022/02/07 03:43:31;;;;;;;;;5.00;0.75;;;;;7.51;69.46;102003.50;5057146;28;45470;-70
2022/02/07 03:45:57;;;;;;;;;2.00;1.00;;;;;7.51;69.33;102011.34;5054840;28;45337;-70
2022/02/07 03:48:23;;;;;;;;;2.00;0.50;;;;;7.50;69.69;102017.47;5055102;28;45344;-70
2022/02/07 03:50:48;;;;;;;;;6.50;0.00;;;;;7.47;69.64;102026.22;5055312;28;46328;-70
2022/02/07 03:53:15;;;;;;;;;2.50;1.00;;;;;7.46;69.67;102026.22;5054942;28;45648;-70
2022/02/07 03:55:41;;;;;;;;;3.50;0.00;;;;;7.41;69.72;102028.84;5057005;28;45400;-71
2022/02/07 03:58:07;;;;;;;;;0.00;0.00;;;;;7.41;69.82;102035.84;5056259;28;45300;-70
2022/02/07 04:00:34;;;;;;;;;3.25;0.25;;;;;7.37;70.03;102045.47;5054920;28;45922;-71
2022/02/07 04:03:03;;;;;;;;;0.50;0.00;;;;;7.40;70.13;102057.66;5055680;28;45435;-70
2022/02/07 04:05:44;;;;;;;;;1.25;1.25;;;;;7.37;70.06;102049.84;5055448;28;45360;-70
2022/02/07 04:08:11;;;;;;;;;0.50;0.50;;;;;7.36;70.33;102051.59;5054167;28;45431;-70
2022/02/07 04:11:01;;;;;;;;;2.25;1.00;;;;;7.32;70.17;102055.13;5057491;28;46399;-70
2022/02/07 04:13:33;;;;;;;;;0.00;0.00;;;;;7.32;70.04;102060.34;5057497;28;45743;-70
2022/02/07 04:16:01;;;;;;;;;1.75;1.00;;;;;7.33;70.35;102072.53;5055549;28;45473;-71
2022/02/07 04:18:31;;;;;;;;;0.00;0.00;;;;;7.32;70.57;102078.66;5053449;28;45436;-71
2022/02/07 04:20:56;;;;;;;;;5.00;1.00;;;;;7.31;70.38;102084.78;5054652;28;47284;-71
2022/02/07 04:23:21;;;;;;;;;0.75;0.00;;;;;7.31;70.14;102100.47;5052780;28;45484;-71
2022/02/07 04:25:47;;;;;;;;;0.00;0.00;;;;;7.29;70.42;102102.19;5056783;28;45423;-70
2022/02/07 04:28:14;;;;;;;;;4.25;1.00;;;;;7.27;70.13;102099.59;5055935;28;45488;-70
2022/02/07 04:30:39;;;;;;;;;1.75;0.75;;;;;7.24;70.26;102101.38;5054878;28;45431;-70
2022/02/07 04:33:04;;;;;;;;;4.00;1.00;;;;;7.23;70.59;102108.34;5055010;28;45441;-71
2022/02/07 04:35:30;;;;;;;;;0.50;0.00;;;;;7.21;70.25;102110.13;5054788;28;47430;-70
2022/02/07 04:37:55;;;;;;;;;7.00;0.25;;;;;7.14;70.35;102111.00;5054897;28;45431;-70
2022/02/07 04:40:21;;;;;;;;;0.00;0.00;;;;;7.16;70.45;102124.97;5053399;28;46842;-70
2022/02/07 04:42:46;;;;;;;;;5.00;1.00;;;;;7.18;70.95;102132.78;5054694;28;45400;-70
2022/02/07 04:50:48;;;;;;;;;2.25;0.50;;;;;7.14;70.88;102145.00;5041268;28;45821;-70
2022/02/07 04:59:18;;;;;;;;;2.50;1.00;;;;;7.10;70.71;102147.63;4973887;28;45621;-70
2022/02/07 05:01:52;;;;;;;;;5.00;2.00;;;;;7.01;70.78;102133.75;4971466;28;45321;-70
2022/02/07 05:04:41;;;;;;;;;2.75;0.00;;;;;7.03;70.92;102147.69;4973148;28;45486;-70
2022/02/07 05:15:18;;;;;;;;;0.50;0.50;;;;;6.96;71.31;102166.91;4973313;28;45574;-70
2022/02/07 05:17:43;;;;;;;;;2.75;0.75;;;;;6.99;71.04;102182.53;4974397;28;45374;-70
2022/02/07 05:20:09;;;;;;;;;1.25;1.00;;;;;6.98;71.10;102193.88;4973171;28;45279;-71
2022/02/07 05:22:35;;;;;;;;;1.00;1.00;;;;;6.94;71.40;102180.81;4973888;28;45569;-70
2022/02/07 05:25:01;;;;;;;;;7.00;2.00;;;;;6.95;71.61;102195.66;4973675;28;45582;-70
2022/02/07 05:27:26;;;;;;;;;1.50;1.00;;;;;6.95;71.41;102206.13;4973175;28;45469;-71
2022/02/07 05:29:52;;;;;;;;;0.75;0.75;;;;;6.89;71.46;102193.94;4972062;28;45517;-71
2022/02/07 05:32:17;;;;;;;;;3.00;1.00;;;;;6.92;71.17;102204.38;4973966;28;45450;-70
2022/02/07 05:34:44;;;;;;;;;1.75;0.00;;;;;6.91;70.99;102213.09;4983427;28;45528;-70
2022/02/07 05:37:14;;;;;;;;;2.00;1.00;;;;;6.88;71.52;102194.78;5055519;28;45432;-70
2022/02/07 05:39:42;;;;;;;;;1.75;0.25;;;;;6.91;71.50;102214.84;5053650;28;45576;-71
2022/02/07 05:42:08;;;;;;;;;3.00;1.00;;;;;6.87;71.69;102219.19;5043733;28;46309;-70
2022/02/07 05:44:36;;;;;;;;;1.25;0.00;;;;;6.87;71.33;102228.78;5054326;28;47814;-70
2022/02/07 05:47:03;;;;;;;;;1.00;1.00;;;;;6.90;71.67;102228.78;5053735;28;45298;-70
2022/02/07 05:49:29;;;;;;;;;2.75;1.00;;;;;6.88;71.32;102241.84;5055894;28;45331;-70
2022/02/07 05:51:54;;;;;;;;;3.00;2.00;;;;;6.89;71.58;102245.31;5053054;28;46110;-70
2022/02/07 05:54:20;;;;;;;;;1.00;1.00;;;;;6.85;71.41;102252.31;5052654;28;53252;-70
2022/02/07 05:56:45;;;;;;;;;0.75;0.75;;;;;6.85;71.49;102248.84;5053910;28;45345;-70
2022/02/07 05:59:11;;;;;;;;;3.50;0.75;;;;;6.83;71.67;102251.44;5053772;28;45416;-70
2022/02/07 06:01:36;;;;;;;;;7.50;2.00;;;;;6.82;71.63;102261.91;5052729;28;45570;-70
2022/02/07 06:04:01;;;;;;;;;2.25;1.00;;;;;6.73;71.47;102254.94;5052355;28;45388;-71
2022/02/07 06:06:27;;;;;;;;;1.50;1.50;;;;;6.83;71.57;102276.69;5053666;28;45340;-71
2022/02/07 06:08:52;;;;;;;;;5.00;2.25;;;;;6.79;71.57;102270.63;5053270;28;45273;-71
2022/02/07 06:11:17;;;;;;;;;2.00;1.00;;;;;6.75;72.08;102279.34;5054001;28;46184;-70
2022/02/07 06:13:43;;;;;;;;;2.50;2.00;;;;;6.79;72.13;102283.69;5055134;28;45332;-71
2022/02/07 06:16:10;;;;;;;;;3.00;1.00;;;;;6.78;71.73;102288.03;5053763;28;45285;-71
2022/02/07 06:18:36;;;;;;;;;3.25;1.00;;;;;6.75;72.07;102288.06;5053602;28;45420;-70
2022/02/07 06:21:04;;;;;;;;;1.00;1.00;;;;;6.65;71.95;102278.50;5053255;28;45917;-70
2022/02/07 06:23:30;;;;;;;;;1.75;1.00;;;;;6.74;72.01;102306.34;5052342;28;46118;-71
2022/02/07 06:25:57;;;;;;;;;3.25;1.00;;;;;6.63;72.27;102292.41;5053389;28;45406;-71
2022/02/07 06:28:22;;;;;;;;;5.00;2.00;;;;;6.68;72.39;102306.34;5054838;28;45644;-70
2022/02/07 06:30:47;;;;;;;;;5.50;3.25;;;;;6.67;72.20;102309.81;5050579;28;46270;-70
2022/02/07 06:33:13;;;;;;;;;2.50;2.00;;;;;6.66;72.18;102316.81;5051359;28;52386;-70
2022/02/07 06:35:38;;;;;;;;;1.75;1.00;;;;;6.56;72.71;102302.00;5053182;28;45574;-70
2022/02/07 06:38:03;;;;;;;;;2.75;0.25;;;;;6.59;72.74;102311.59;5052633;28;45553;-71
2022/02/07 06:40:29;;;;;;;;;6.00;1.00;;;;;6.61;72.67;102312.47;5055014;28;46488;-70
2022/02/07 06:42:54;;;;;;;;;3.00;1.50;;;;;6.60;72.91;102315.94;5052603;28;45442;-71
2022/02/07 06:45:19;;;;;;;;;3.50;1.50;;;;;6.59;72.56;102322.03;5050671;28;45713;-70
2022/02/07 06:47:45;;;;;;;;;2.50;2.00;;;;;6.57;72.95;102327.25;5052844;28;45433;-70
2022/02/07 06:50:10;;;;;;;;;2.00;2.00;;;;;6.53;72.95;102323.78;5052596;28;45630;-71
2022/02/07 06:52:36;;;;;;;;;1.75;1.00;;;;;6.52;73.10;102331.59;5054407;28;45396;-70
2022/02/07 06:55:01;;;;;;;;;1.00;1.00;;;;;6.51;73.05;102333.34;5052674;28;45583;-70
2022/02/07 06:57:27;;;;;;;;;5.00;1.25;;;;;6.51;72.97;102341.19;5052221;28;45464;-71
2022/02/07 06:59:52;;;;;;;;;5.00;2.50;;;;;6.50;73.08;102349.91;5068029;28;46260;-70
2022/02/07 07:02:20;;;;;;;;;2.75;2.50;;;;;6.53;73.40;102359.50;5051892;28;45641;-70
2022/02/07 07:04:48;;;;;;;;;9.00;2.50;;;;;6.51;73.18;102356.00;5054209;28;45385;-70
2022/02/07 07:07:14;;;;;;;;;7.00;1.00;;;;;6.51;73.31;102361.22;5053120;28;45415;-71
2022/02/07 07:09:43;;;;;;;;;0.75;0.75;;;;;6.52;73.29;102368.16;5052813;28;46511;-71
2022/02/07 07:12:10;;;;;;;;;4.00;2.00;;;;;6.52;73.32;102376.00;5051605;28;45400;-71
2022/02/07 07:14:52;;;;;;;;;5.25;5.00;;;;;6.54;73.92;102377.75;5051250;28;45503;-71
2022/02/07 07:17:17;;;;;;;;;9.25;4.25;;;;;6.58;73.67;102375.13;5052993;28;45422;-70
2022/02/07 07:19:42;;;;;;;;;3.00;2.25;;;;;6.56;73.56;102377.75;5054234;28;45427;-70
2022/02/07 07:22:08;;;;;;;;;1.50;1.50;;;;;6.57;73.83;102378.63;5051767;28;45415;-70
2022/02/07 07:24:38;;;;;;;;;5.50;3.00;;;;;6.56;73.98;102385.59;5049267;28;45368;-71
2022/02/07 07:27:05;;;;;;;;;1.25;1.00;;;;;6.58;73.81;102390.81;5049049;28;45742;-70
2022/02/07 07:29:35;;;;;;;;;0.75;0.75;;;;;6.57;73.98;102399.53;5049554;28;47306;-70
2022/02/07 07:32:05;;;;;;;;;6.00;3.50;;;;;6.58;73.94;102409.09;5050625;28;46058;-69
2022/02/07 07:34:31;;;;;;;;;2.00;2.00;;;;;6.61;74.22;102424.78;5053094;28;45372;-71
2022/02/07 07:36:57;;;;;;;;;4.00;1.00;;;;;6.59;73.93;102418.69;5051099;28;46298;-71
2022/02/07 07:39:23;;;;;;;;;1.00;1.00;;;;;6.62;74.14;102416.06;5051159;28;45603;-70
2022/02/07 07:41:48;;;;;;;;;10.00;2.00;;;;;6.71;74.47;102427.41;5048299;28;45411;-71
2022/02/07 07:44:16;;;;;;;;;2.00;2.00;;;;;6.80;74.04;102437.00;5051077;28;45307;-71
2022/02/07 07:46:42;;;;;;;;;2.75;2.00;;;;;6.89;74.17;102442.22;5050581;28;45456;-70
2022/02/07 07:49:12;;;;;;;;;3.00;3.00;;;;;7.05;73.99;102454.41;5066997;28;47120;-70
2022/02/07 07:54:23;;;;;;;;;2.50;1.75;;;;;8.12;73.26;102466.28;5052547;28;45490;-70
2022/02/07 08:02:19;;;;;;;;;4.50;1.75;;;;;9.02;71.02;102491.03;5051077;28;46049;-70
2022/02/07 08:04:47;;;;;;;;;5.00;3.00;;;;;9.17;70.74;102490.03;5053176;28;45435;-70
2022/02/07 08:07:33;;;;;;;;;5.75;3.00;;;;;9.26;70.30;102498.69;5058784;28;45541;-70
2022/02/07 08:12:24;;;;;;;;;5.00;3.00;;;;;9.63;69.66;102506.19;5053796;28;45229;-70
2022/02/07 08:14:50;;;;;;;;;15.00;2.25;;;;;9.86;69.03;102501.53;5059144;27;45475;-71
2022/02/07 08:17:18;;;;;;;;;2.00;2.00;;;;;10.03;68.93;102511.00;5053274;28;45534;-71
2022/02/07 08:19:45;;;;;;;;;1.75;1.75;;;;;10.54;69.04;102519.09;5054841;28;45521;-70
2022/02/07 08:22:11;;;;;;;;;2.00;2.00;;;;;11.66;68.41;102505.81;5053215;28;45392;-71
2022/02/07 08:24:37;;;;;;;;;5.00;2.25;;;;;12.36;65.88;102523.75;5052752;28;45568;-71
2022/02/07 08:27:04;;;;;;;;;2.00;2.00;;;;;12.79;65.07;102526.28;5052026;28;45416;-73
2022/02/07 08:29:30;;;;;;;;;3.75;2.00;;;;;12.90;64.05;102537.47;5051781;28;45643;-71
2022/02/07 08:31:55;;;;;;;;;39.75;30.50;;;;;13.12;63.92;102532.53;5053026;28;45551;-71
2022/02/07 08:34:20;;;;;;;;;9.00;3.00;;;;;14.44;64.19;102535.06;5052761;28;51353;-71
2022/02/07 08:36:45;;;;;;;;;5.75;4.00;;;;;15.84;62.00;102534.84;5052998;28;51825;-71
2022/02/07 08:39:11;;;;;;;;;10.75;3.25;;;;;17.35;60.89;102540.44;5050551;28;50670;-71
2022/02/07 08:41:36;;;;;;;;;2.25;2.25;;;;;18.83;58.42;102544.31;5050695;28;45782;-71
2022/02/07 08:44:02;;;;;;;;;3.75;2.00;;;;;20.19;55.86;102544.44;5051626;28;45867;-71
2022/02/07 08:46:27;;;;;;;;;5.50;3.50;;;;;21.40;53.78;102554.44;5055996;28;45468;-71
2022/02/07 08:48:53;;;;;;;;;4.75;3.50;;;;;22.41;52.08;102553.56;5066103;28;50864;-71
2022/02/07 08:51:19;;;;;;;;;4.50;3.00;;;;;23.39;50.68;102549.78;5050858;28;45536;-71
2022/02/07 08:53:46;;;;;;;;;4.50;2.50;;;;;24.39;49.18;102549.03;5052056;28;45482;-72
2022/02/07 08:56:13;;;;;;;;;4.00;4.00;;;;;25.28;47.54;102554.03;5052407;28;45488;-71
2022/02/07 08:58:42;;;;;;;;;3.50;2.50;;;;;26.11;44.95;102553.81;5052811;28;46537;-71
2022/02/07 09:01:19;;;;;;;;;3.50;1.75;;;;;26.92;44.61;102571.44;5050632;28;45600;-71
2022/02/07 09:06:40;;;;;;;;;4.75;1.25;;;;;28.64;42.26;102586.28;5028585;28;45498;-71
2022/02/07 09:09:16;;;;;;;;;5.75;4.00;;;;;29.42;40.61;102593.47;5018533;28;47285;-71
2022/02/07 09:11:43;;;;;;;;;2.00;2.00;;;;;30.17;39.76;102601.75;5013006;28;45819;-69
2022/02/07 09:14:11;;;;;;;;;6.00;2.75;;;;;30.89;38.82;102596.34;5027406;28;45549;-69
2022/02/07 09:16:39;;;;;;;;;79.50;62.00;;;;;31.53;37.04;102613.44;5014128;28;45483;-69
2022/02/07 09:19:05;;;;;;;;;7.75;5.00;;;;;32.03;36.23;102623.63;5016468;28;46424;-69
2022/02/07 09:21:32;;;;;;;;;5.00;2.25;;;;;32.39;35.22;102634.38;5018378;28;45491;-71
2022/02/07 09:23:58;;;;;;;;;4.50;2.50;;;;;32.75;34.04;102634.16;5018522;28;47883;-71
2022/02/07 09:26:25;;;;;;;;;3.25;2.00;;;;;33.20;33.48;102641.91;5026563;28;45521;-71
2022/02/07 09:28:50;;;;;;;;;3.25;2.75;;;;;33.57;32.98;102643.31;5016766;28;45593;-72
2022/02/07 09:31:16;;;;;;;;;4.75;2.50;;;;;33.86;33.04;102650.97;5017630;28;45580;-72
2022/02/07 09:33:44;;;;;;;;;3.25;2.00;;;;;34.16;32.13;102671.22;5013308;28;45798;-71
2022/02/07 09:36:11;;;;;;;;;4.00;3.00;;;;;34.35;31.13;102676.28;5014815;28;45430;-71
2022/02/07 09:38:36;;;;;;;;;3.25;1.75;;;;;34.60;29.73;102677.03;5024999;28;46432;-71
2022/02/07 09:41:01;;;;;;;;;5.00;2.00;;;;;34.83;29.77;102685.28;5012582;28;45403;-71
2022/02/07 09:43:32;;;;;;;;;3.25;3.25;;;;;35.20;29.44;102697.41;5030611;28;45415;-72
2022/02/07 09:46:06;;;;;;;;;1.75;1.75;;;;;35.50;28.49;102698.38;5057169;28;45456;-71
2022/02/07 09:48:40;;;;;;;;;1.75;1.75;;;;;35.74;28.83;102703.63;5053155;27;46448;-72
2022/02/07 09:51:10;;;;;;;;;4.25;2.50;;;;;35.87;28.20;102718.59;5052784;28;45579;-72
2022/02/07 09:53:37;;;;;;;;;3.00;3.00;;;;;36.12;27.76;102716.47;5051605;28;45683;-72
2022/02/07 09:56:05;;;;;;;;;5.00;3.00;;;;;36.36;27.88;102727.16;5053117;28;45514;-71
2022/02/07 09:58:33;;;;;;;;;2.00;2.00;;;;;36.59;26.62;102718.84;5054010;28;47122;-70
2022/02/07 10:01:01;;;;;;;;;1.50;1.00;;;;;36.73;26.71;102731.69;5054301;28;48362;-68
2022/02/07 10:03:33;;;;;;;;;10.00;8.50;;;;;36.32;25.95;102737.63;5051283;28;45285;-69
2022/02/07 10:06:09;;;;;;;;;2.75;2.25;;;;;36.63;26.74;102730.28;5042613;28;45417;-69
2022/02/07 10:08:51;;;;;;;;;5.25;4.50;;;;;36.66;26.20;102747.19;5051375;28;46473;-69
2022/02/07 10:19:10;;;;;;;;;5.25;2.75;;;;;35.57;25.34;102769.63;5049762;28;45749;-69
2022/02/07 10:44:45;;;;;;;;;4.00;2.25;;;;;27.26;29.49;102793.56;4972452;28;45451;-69
2022/02/07 10:49:56;;;;;;;;;3.25;1.50;;;;;25.93;29.53;102782.41;4973143;28;45403;-69
2022/02/07 10:52:21;;;;;;;;;3.25;2.25;;;;;25.27;30.52;102777.50;4963884;28;47292;-68
2022/02/07 10:54:50;;;;;;;;;5.25;3.00;;;;;24.83;30.99;102786.91;4985545;28;45394;-68
2022/02/07 10:57:16;;;;;;;;;1.25;1.25;;;;;24.52;31.05;102781.00;5053374;28;45583;-68
2022/02/07 10:59:41;;;;;;;;;6.00;3.00;;;;;24.43;31.35;102787.91;5048747;28;46795;-68
2022/02/07 11:05:05;;;;;;;;;5.00;1.00;;;;;24.12;32.08;102767.63;5052692;28;45775;-67
2022/02/07 11:07:33;;;;;;;;;2.75;1.00;;;;;24.23;32.26;102784.84;5053430;28;45326;-67
2022/02/07 11:10:20;;;;;;;;;1.00;0.75;;;;;24.39;31.69;102783.69;5052009;28;45389;-68
2022/02/07 11:15:32;;;;;;;;;4.75;1.00;;;;;24.28;32.45;102782.69;5050323;28;45461;-68
2022/02/07 11:18:20;;;;;;;;;2.50;2.50;;;;;24.06;31.98;102781.44;5052202;28;45523;-69
2022/02/07 11:21:02;;;;;;;;;5.25;1.00;;;;;23.67;32.54;102787.69;5051938;28;45351;-68
2022/02/07 11:23:46;;;;;;;;;5.25;3.00;;;;;23.15;32.36;102782.97;5052956;28;46801;-68
2022/02/07 11:26:33;;;;;;;;;3.00;1.25;;;;;22.91;32.71;102777.31;5036995;28;45388;-68
2022/02/07 11:28:59;;;;;;;;;4.00;4.00;;;;;22.72;32.72;102774.06;5050193;28;45733;-69
2022/02/07 11:31:29;;;;;;;;;5.75;3.00;;;;;22.22;33.63;102775.31;5051202;28;45423;-69
2022/02/07 11:34:01;;;;;;;;;5.50;3.00;;;;;21.57;33.04;102791.56;5048444;28;45571;-69
2022/02/07 11:36:34;;;;;;;;;3.00;2.50;;;;;21.23;33.63;102795.22;5049546;28;45731;-69
2022/02/07 11:39:02;;;;;;;;;6.25;3.00;;;;;20.95;34.24;102803.91;5049964;28;45506;-68
2022/02/07 11:41:28;;;;;;;;;6.25;4.00;;;;;20.76;34.21;102798.66;5051880;28;45530;-69
2022/02/07 11:43:54;;;;;;;;;9.00;7.00;;;;;20.63;34.46;102790.44;5052202;28;45465;-68
2022/02/07 11:46:21;;;;;;;;;2.00;2.00;;;;;20.55;34.38;102792.66;5053190;28;45782;-69
2022/02/07 11:48:50;;;;;;;;;4.50;1.75;;;;;20.41;34.72;102800.47;5053002;28;45443;-67
2022/02/07 11:51:21;;;;;;;;;5.00;2.50;;;;;20.30;34.53;102787.66;5055362;28;45337;-67
2022/02/07 11:54:12;;;;;;;;;5.00;3.75;;;;;20.03;35.17;102793.47;5051960;28;45522;-68
2022/02/07 11:56:46;;;;;;;;;4.75;3.00;;;;;19.74;34.63;102797.59;5052687;28;45592;-70
2022/02/07 11:59:15;;;;;;;;;4.75;4.25;;;;;19.51;35.43;102806.66;5037184;28;45469;-67
2022/02/07 12:01:50;;;;;;;;;5.50;1.75;;;;;19.46;35.91;102803.34;5051230;28;45684;-68
2022/02/07 12:04:37;;;;;;;;;5.75;2.75;;;;;19.46;35.76;102806.00;5017205;28;45746;-69
2022/02/07 12:07:15;;;;;;;;;3.00;3.00;;;;;19.49;36.44;102808.56;5017029;28;47093;-68
2022/02/07 12:10:04;;;;;;;;;4.75;3.00;;;;;19.30;36.24;102813.00;5015198;28;45505;-68
2022/02/07 12:12:33;;;;;;;;;4.00;3.00;;;;;19.07;36.33;102818.56;5021193;28;45520;-68
2022/02/07 12:15:04;;;;;;;;;2.75;2.50;;;;;18.87;36.37;102816.78;5024455;28;47568;-67
2022/02/07 12:17:41;;;;;;;;;4.00;2.00;;;;;18.65;36.67;102806.19;5011986;28;45724;-68
2022/02/07 12:20:08;;;;;;;;;5.75;4.25;;;;;18.59;36.52;102795.81;5018587;28;45843;-67
2022/02/07 12:22:56;;;;;;;;;6.25;2.25;;;;;18.50;37.10;102811.25;5015348;28;45605;-68
2022/02/07 12:25:53;;;;;;;;;2.00;1.25;;;;;18.40;37.23;102809.03;5012804;28;46184;-69
2022/02/07 12:28:32;;;;;;;;;3.00;2.00;;;;;18.19;37.16;102773.56;5013760;28;45822;-69
2022/02/07 12:31:08;;;;;;;;;1.75;1.25;;;;;18.29;37.04;102790.88;5011493;28;46186;-69
2022/02/07 12:33:33;;;;;;;;;5.75;2.00;;;;;18.28;37.40;102797.13;5012964;28;45533;-69
2022/02/07 12:36:00;;;;;;;;;2.25;2.25;;;;;18.23;37.32;102799.13;5016390;28;45484;-69
2022/02/07 12:38:37;;;;;;;;;5.00;2.00;;;;;18.14;37.32;102810.16;5011397;28;46166;-69
2022/02/07 12:41:09;;;;;;;;;3.00;1.00;;;;;18.02;37.81;102805.34;5011798;28;45379;-69
2022/02/07 12:43:37;;;;;;;;;4.50;3.00;;;;;17.74;37.19;102782.50;5017425;28;45780;-69
2022/02/07 12:46:05;;;;;;;;;2.00;2.00;;;;;17.65;38.09;102791.72;5014864;28;46055;-69
2022/02/07 12:48:33;;;;;;;;;4.00;3.25;;;;;17.64;37.57;102797.06;5015908;28;45531;-67
2022/02/07 12:50:59;;;;;;;;;1.25;1.25;;;;;17.56;38.07;102794.72;5016293;28;47039;-67
2022/02/07 12:53:28;;;;;;;;;7.00;3.00;;;;;17.44;38.45;102793.44;5011385;28;45472;-66
2022/02/07 12:55:56;;;;;;;;;4.00;1.50;;;;;17.21;38.38;102778.34;5011979;28;46303;-67
2022/02/07 12:58:45;;;;;;;;;2.00;2.00;;;;;17.01;38.16;102786.19;5015945;28;45562;-67
2022/02/07 13:01:27;;;;;;;;;4.75;2.00;;;;;16.97;38.51;102799.69;5008608;28;45468;-67
2022/02/07 13:03:57;;;;;;;;;3.50;1.50;;;;;16.79;38.86;102799.41;5041357;28;45584;-69
2022/02/07 13:06:43;;;;;;;;;3.00;1.75;;;;;16.69;38.97;102787.34;5058082;28;45481;-70
2022/02/07 13:09:13;;;;;;;;;5.25;2.00;;;;;16.54;39.24;102788.75;5055274;28;45420;-71
2022/02/07 13:11:45;;;;;;;;;3.75;2.00;;;;;16.40;39.76;102791.91;5057721;28;45543;-71
2022/02/07 13:14:13;;;;;;;;;4.50;3.25;;;;;16.33;39.87;102794.81;5052876;28;45469;-71
2022/02/07 13:16:38;;;;;;;;;3.50;3.00;;;;;16.25;39.82;102786.28;5052094;28;45800;-72
2022/02/07 13:19:12;;;;;;;;;3.50;3.00;;;;;16.24;40.06;102795.16;5057204;28;45490;-72
2022/02/07 13:21:41;;;;;;;;;4.50;1.00;;;;;16.32;40.02;102801.06;5056846;28;45672;-71
2022/02/07 13:24:21;;;;;;;;;1.00;1.00;;;;;16.31;40.26;102807.28;5056783;28;46264;-70
2022/02/07 13:26:53;;;;;;;;;1.00;1.00;;;;;16.25;40.18;102800.41;5053550;28;47064;-71
2022/02/07 13:29:24;;;;;;;;;1.25;1.25;;;;;16.16;40.30;102796.25;5056145;27;45752;-71
2022/02/07 13:32:04;;;;;;;;;2.00;0.25;;;;;15.97;40.31;102794.25;5058620;28;45676;-71
2022/02/07 13:34:33;;;;;;;;;1.00;1.00;;;;;15.92;40.38;102802.38;5057991;28;45343;-71
2022/02/07 13:37:29;;;;;;;;;2.25;1.25;;;;;15.87;40.37;102796.38;5050990;28;45678;-71
2022/02/07 13:39:59;;;;;;;;;3.25;2.00;;;;;15.86;40.66;102807.88;5051080;28;45466;-71
2022/02/07 13:42:34;;;;;;;;;1.00;1.00;;;;;15.77;40.21;102814.34;5052555;28;45605;-71
2022/02/07 13:45:07;;;;;;;;;3.50;1.00;;;;;15.71;40.79;102811.88;5052141;28;45460;-71
2022/02/07 13:47:33;;;;;;;;;2.00;1.00;;;;;15.66;40.71;102808.53;5052649;28;47160;-71
2022/02/07 13:50:08;;;;;;;;;4.75;1.00;;;;;15.60;41.21;102819.25;5052443;28;45688;-71
2022/02/07 13:52:37;;;;;;;;;3.75;1.50;;;;;15.50;40.76;102804.56;5055339;28;45532;-72
2022/02/07 13:55:13;;;;;;;;;2.75;1.00;;;;;15.46;41.20;102803.81;5052787;28;45939;-72
2022/02/07 13:57:57;;;;;;;;;3.75;2.00;;;;;15.39;40.92;102807.53;5051604;28;46333;-71
2022/02/07 14:00:25;;;;;;;;;2.00;1.00;;;;;15.31;41.12;102810.44;5050172;28;45859;-72